createdAt,value
2016-11-20T00:00:02.607Z,6.73
2016-11-20T00:01:17.738Z,6.72
2016-11-20T00:02:32.466Z,6.71
2016-11-20T00:03:47.279Z,6.68
2016-11-20T00:05:03.123Z,6.66
2016-11-20T00:06:17.718Z,6.65
2016-11-20T00:07:32.542Z,6.64
2016-11-20T00:08:47.286Z,6.62
2016-11-20T00:10:03.005Z,6.63
2016-11-20T00:11:17.783Z,6.61
2016-11-20T00:12:32.868Z,6.59
2016-11-20T00:13:47.150Z,6.59
2016-11-20T00:15:01.357Z,6.6
2016-11-20T00:16:17.089Z,6.62
2016-11-20T00:17:31.805Z,6.65
2016-11-20T00:18:47.553Z,6.66
2016-11-20T00:20:02.235Z,6.68
2016-11-20T00:21:17.032Z,6.69
2016-11-20T00:22:31.778Z,6.69
2016-11-20T00:23:46.335Z,6.69
2016-11-20T00:25:01.664Z,6.67
2016-11-20T00:26:17.246Z,6.66
2016-11-20T00:27:32.208Z,6.66
2016-11-20T00:28:46.534Z,6.63
2016-11-20T00:30:01.089Z,6.62
2016-11-20T00:31:15.874Z,6.6
2016-11-20T00:32:45.310Z,6.58
2016-11-20T00:34:00.707Z,6.57
2016-11-20T00:35:15.422Z,6.56
2016-11-20T00:36:29.783Z,6.53
2016-11-20T00:37:45.400Z,6.52
2016-11-20T00:39:00.392Z,6.5
2016-11-20T00:40:15.233Z,6.47
2016-11-20T00:41:30.238Z,6.47
2016-11-20T00:42:44.873Z,6.47
2016-11-20T00:43:59.915Z,6.49
2016-11-20T00:45:14.320Z,6.52
2016-11-20T00:46:29.551Z,6.52
2016-11-20T00:47:43.954Z,6.5
2016-11-20T00:48:58.721Z,6.51
2016-11-20T00:50:14.595Z,6.5
2016-11-20T00:51:29.088Z,6.51
2016-11-20T00:52:43.727Z,6.56
2016-11-20T00:53:58.182Z,6.59
2016-11-20T00:55:12.786Z,6.6
2016-11-20T00:56:27.303Z,6.64
2016-11-20T00:57:41.921Z,6.64
2016-11-20T00:58:56.601Z,6.67
2016-11-20T01:00:12.033Z,6.71
2016-11-20T01:01:26.900Z,6.76
2016-11-20T01:02:41.344Z,6.82
2016-11-20T01:03:55.993Z,6.86
2016-11-20T01:05:10.527Z,6.92
2016-11-20T01:06:28.052Z,6.98
2016-11-20T01:07:42.954Z,7.01
2016-11-20T01:08:57.319Z,7.04
2016-11-20T01:10:12.371Z,7.07
2016-11-20T01:11:26.901Z,7.09
2016-11-20T01:12:41.226Z,7.1
2016-11-20T01:13:56.319Z,7.12
2016-11-20T01:15:11.357Z,7.13
2016-11-20T01:18:24.689Z,7.14
2016-11-20T01:19:39.725Z,7.14
2016-11-20T01:20:56.100Z,7.13
2016-11-20T01:22:10.948Z,7.13
2016-11-20T01:23:25.442Z,7.15
2016-11-20T01:24:42.676Z,7.15
2016-11-20T01:26:01.484Z,7.17
2016-11-20T01:27:18.336Z,7.17
2016-11-20T01:28:33.321Z,7.2
2016-11-20T01:29:51.429Z,7.24
2016-11-20T01:31:06.735Z,7.3
2016-11-20T01:32:21.159Z,7.36
2016-11-20T01:33:35.523Z,7.43
2016-11-20T01:34:49.859Z,7.48
2016-11-20T01:36:04.251Z,7.54
2016-11-20T01:37:19.072Z,7.58
2016-11-20T01:38:48.147Z,7.61
2016-11-20T01:40:02.649Z,7.65
2016-11-20T01:41:17.092Z,7.66
2016-11-20T01:44:01.600Z,7.74
2016-11-20T01:45:15.808Z,7.74
2016-11-20T01:46:30.167Z,7.78
2016-11-20T01:47:44.867Z,7.8
2016-11-20T01:48:59.515Z,7.84
2016-11-20T01:50:14.223Z,7.85
2016-11-20T01:51:28.590Z,7.86
2016-11-20T01:52:42.911Z,7.84
2016-11-20T01:53:57.875Z,7.83
2016-11-20T01:55:12.360Z,7.83
2016-11-20T01:56:26.953Z,7.83
2016-11-20T01:57:41.651Z,7.83
2016-11-20T01:58:55.933Z,7.81
2016-11-20T02:00:10.974Z,7.79
2016-11-20T02:01:25.701Z,7.71
2016-11-20T02:02:40.812Z,7.64
2016-11-20T02:03:54.851Z,7.57
2016-11-20T02:05:08.977Z,7.51
2016-11-20T02:06:23.401Z,7.45
2016-11-20T02:07:37.942Z,7.41
2016-11-20T02:08:52.230Z,7.38
2016-11-20T02:10:06.726Z,7.38
2016-11-20T02:11:21.254Z,7.38
2016-11-20T02:12:36.290Z,7.36
2016-11-20T02:13:50.858Z,7.37
2016-11-20T02:15:05.568Z,7.37
2016-11-20T02:16:19.994Z,7.34
2016-11-20T02:17:34.255Z,7.33
2016-11-20T02:18:48.909Z,7.33
2016-11-20T02:20:03.256Z,7.32
2016-11-20T02:21:17.718Z,7.32
2016-11-20T02:22:32.116Z,7.3
2016-11-20T02:23:46.805Z,7.29
2016-11-20T02:25:03.444Z,7.27
2016-11-20T02:26:17.995Z,7.25
2016-11-20T02:27:32.564Z,7.22
2016-11-20T02:28:47.242Z,7.17
2016-11-20T02:30:01.985Z,7.13
2016-11-20T02:31:16.622Z,7.07
2016-11-20T02:32:30.863Z,7.05
2016-11-20T02:33:45.682Z,7.02
2016-11-20T02:35:00.272Z,6.96
2016-11-20T02:36:14.586Z,6.92
2016-11-20T02:37:29.453Z,6.88
2016-11-20T02:38:43.813Z,6.82
2016-11-20T02:40:13.431Z,6.79
2016-11-20T02:44:24.844Z,6.74
2016-11-20T02:45:39.402Z,6.75
2016-11-20T02:46:54.217Z,6.73
2016-11-20T02:48:08.870Z,6.74
2016-11-20T02:49:23.466Z,6.74
2016-11-20T02:50:37.885Z,6.77
2016-11-20T02:51:53.945Z,6.76
2016-11-20T02:53:08.203Z,6.76
2016-11-20T02:54:22.450Z,6.76
2016-11-20T02:55:36.905Z,6.77
2016-11-20T02:56:51.620Z,6.76
2016-11-20T02:58:06.223Z,6.78
2016-11-20T02:59:20.508Z,6.76
2016-11-20T03:00:35.585Z,6.72
2016-11-20T03:01:50.332Z,6.7
2016-11-20T03:03:04.720Z,6.62
2016-11-20T03:04:19.415Z,6.58
2016-11-20T03:05:34.205Z,6.54
2016-11-20T03:06:48.299Z,6.5
2016-11-20T03:08:02.440Z,6.49
2016-11-20T03:09:16.765Z,6.48
2016-11-20T03:10:32.038Z,6.49
2016-11-20T03:11:46.622Z,6.5
2016-11-20T03:13:01.536Z,6.49
2016-11-20T03:14:15.975Z,6.51
2016-11-20T03:15:30.365Z,6.52
2016-11-20T03:16:44.792Z,6.53
2016-11-20T03:17:59.570Z,6.57
2016-11-20T03:19:14.044Z,6.6
2016-11-20T03:20:43.191Z,6.65
2016-11-20T03:21:57.585Z,6.69
2016-11-20T03:23:12.327Z,6.72
2016-11-20T03:24:26.999Z,6.74
2016-11-20T03:25:41.221Z,6.78
2016-11-20T03:26:55.744Z,6.79
2016-11-20T03:28:10.089Z,6.82
2016-11-20T03:29:24.767Z,6.85
2016-11-20T03:30:39.409Z,6.88
2016-11-20T03:31:53.557Z,6.88
2016-11-20T03:33:08.259Z,6.88
2016-11-20T03:34:22.492Z,6.88
2016-11-20T03:35:37.242Z,6.88
2016-11-20T03:36:51.945Z,6.88
2016-11-20T03:38:06.240Z,6.9
2016-11-20T03:39:20.744Z,6.9
2016-11-20T03:40:35.088Z,6.9
2016-11-20T03:41:49.437Z,6.92
2016-11-20T03:43:04.120Z,6.93
2016-11-20T03:44:20.975Z,6.95
2016-11-20T03:45:35.231Z,6.96
2016-11-20T03:46:49.468Z,6.97
2016-11-20T03:48:04.182Z,6.97
2016-11-20T03:49:18.585Z,6.97
2016-11-20T03:50:33.670Z,6.98
2016-11-20T03:53:46.666Z,6.99
2016-11-20T03:55:01.187Z,6.99
2016-11-20T03:56:15.720Z,6.98
2016-11-20T03:57:30.058Z,6.97
2016-11-20T03:58:44.594Z,6.96
2016-11-20T03:59:58.828Z,6.92
2016-11-20T04:01:13.546Z,6.89
2016-11-20T04:02:27.792Z,6.85
2016-11-20T04:03:42.336Z,6.79
2016-11-20T04:04:56.980Z,6.77
2016-11-20T04:06:11.112Z,6.78
2016-11-20T04:07:26.178Z,6.78
2016-11-20T04:08:40.841Z,6.8
2016-11-20T04:09:55.567Z,6.8
2016-11-20T04:11:09.948Z,6.82
2016-11-20T04:12:24.138Z,6.83
2016-11-20T04:13:38.765Z,6.85
2016-11-20T04:14:53.240Z,6.86
2016-11-20T04:16:07.685Z,6.87
2016-11-20T04:17:21.853Z,6.86
2016-11-20T04:18:35.873Z,6.82
2016-11-20T04:19:50.419Z,6.83
2016-11-20T04:21:04.793Z,6.79
2016-11-20T04:22:19.533Z,6.78
2016-11-20T04:23:33.929Z,6.78
2016-11-20T04:24:48.166Z,6.78
2016-11-20T04:26:03.007Z,6.77
2016-11-20T04:27:17.739Z,6.74
2016-11-20T04:28:32.405Z,6.73
2016-11-20T04:29:46.816Z,6.73
2016-11-20T04:31:01.134Z,6.74
2016-11-20T04:32:15.681Z,6.75
2016-11-20T04:33:30.129Z,6.76
2016-11-20T04:34:44.315Z,6.79
2016-11-20T04:35:58.900Z,6.79
2016-11-20T04:37:13.097Z,6.77
2016-11-20T04:38:27.828Z,6.77
2016-11-20T04:39:42.107Z,6.8
2016-11-20T04:43:54.242Z,6.89
2016-11-20T04:45:23.705Z,6.9
2016-11-20T04:46:37.990Z,6.91
2016-11-20T04:47:52.087Z,6.91
2016-11-20T04:49:06.387Z,6.92
2016-11-20T04:50:20.851Z,6.92
2016-11-20T04:51:35.312Z,6.97
2016-11-20T04:52:50.145Z,7
2016-11-20T04:54:04.528Z,6.99
2016-11-20T04:55:19.204Z,6.97
2016-11-20T04:56:33.814Z,6.97
2016-11-20T04:57:48.306Z,6.99
2016-11-20T04:59:02.678Z,7.03
2016-11-20T05:00:16.965Z,7.06
2016-11-20T05:01:31.337Z,7.08
2016-11-20T05:02:45.710Z,7.09
2016-11-20T05:04:02.645Z,7.1
2016-11-20T05:05:17.175Z,7.15
2016-11-20T05:06:31.457Z,7.2
2016-11-20T05:07:46.104Z,7.25
2016-11-20T05:09:00.496Z,7.3
2016-11-20T05:10:14.830Z,7.33
2016-11-20T05:11:29.656Z,7.35
2016-11-20T05:12:44.027Z,7.33
2016-11-20T05:13:58.450Z,7.33
2016-11-20T05:15:13.141Z,7.32
2016-11-20T05:16:27.545Z,7.33
2016-11-20T05:17:42.275Z,7.33
2016-11-20T05:18:56.641Z,7.32
2016-11-20T05:20:11.182Z,7.3
2016-11-20T05:23:39.740Z,7.29
2016-11-20T05:24:53.968Z,7.28
2016-11-20T05:26:08.357Z,7.26
2016-11-20T05:27:23.314Z,7.23
2016-11-20T05:28:37.866Z,7.15
2016-11-20T05:29:52.105Z,7.12
2016-11-20T05:31:06.712Z,7.09
2016-11-20T05:32:20.896Z,7.08
2016-11-20T05:33:35.604Z,7.07
2016-11-20T05:34:50.553Z,7.05
2016-11-20T05:36:04.720Z,7
2016-11-20T05:37:19.563Z,6.97
2016-11-20T05:38:33.754Z,6.94
2016-11-20T05:39:48.197Z,6.94
2016-11-20T05:41:02.352Z,6.91
2016-11-20T05:42:16.701Z,6.87
2016-11-20T05:45:30.251Z,6.81
2016-11-20T05:46:44.517Z,6.79
2016-11-20T05:47:58.950Z,6.77
2016-11-20T05:49:13.174Z,6.75
2016-11-20T05:51:56.904Z,6.75
2016-11-20T05:53:11.662Z,6.77
2016-11-20T05:54:25.892Z,6.77
2016-11-20T05:55:39.983Z,6.76
2016-11-20T05:56:54.172Z,6.74
2016-11-20T05:58:08.761Z,6.75
2016-11-20T05:59:24.309Z,6.77
2016-11-20T06:00:38.595Z,6.79
2016-11-20T06:01:52.796Z,6.77
2016-11-20T06:03:07.005Z,6.75
2016-11-20T06:06:05.764Z,6.8
2016-11-20T06:07:20.411Z,6.8
2016-11-20T06:08:34.952Z,6.82
2016-11-20T06:09:49.232Z,6.83
2016-11-20T06:11:03.444Z,6.83
2016-11-20T06:12:18.482Z,6.84
2016-11-20T06:13:32.606Z,6.85
2016-11-20T06:14:47.016Z,6.86
2016-11-20T06:16:01.418Z,6.86
2016-11-20T06:17:15.758Z,6.85
2016-11-20T06:18:30.924Z,6.83
2016-11-20T06:19:45.313Z,6.82
2016-11-20T06:20:59.706Z,6.81
2016-11-20T06:22:14.012Z,6.81
2016-11-20T06:23:45.965Z,6.84
2016-11-20T06:25:00.596Z,6.84
2016-11-20T06:26:15.031Z,6.83
2016-11-20T06:27:29.495Z,6.86
2016-11-20T06:28:43.909Z,6.86
2016-11-20T06:29:58.379Z,6.86
2016-11-20T06:31:13.099Z,6.85
2016-11-20T06:32:28.142Z,6.85
2016-11-20T06:33:42.329Z,6.85
2016-11-20T06:34:57.086Z,6.88
2016-11-20T06:36:11.662Z,6.92
2016-11-20T06:37:26.279Z,6.95
2016-11-20T06:38:55.382Z,6.98
2016-11-20T06:40:09.474Z,7
2016-11-20T06:41:23.812Z,7.02
2016-11-20T06:42:38.134Z,7.05
2016-11-20T06:43:53.026Z,7.08
2016-11-20T06:45:07.414Z,7.08
2016-11-20T06:46:22.010Z,7.09
2016-11-20T06:47:36.528Z,7.11
2016-11-20T06:48:50.876Z,7.13
2016-11-20T06:50:05.538Z,7.17
2016-11-20T06:52:49.800Z,7.25
2016-11-20T06:54:04.171Z,7.26
2016-11-20T06:55:33.203Z,7.31
2016-11-20T06:56:48.009Z,7.33
2016-11-20T06:58:02.483Z,7.36
2016-11-20T06:59:17.477Z,7.37
2016-11-20T07:00:32.259Z,7.38
2016-11-20T07:01:47.327Z,7.43
2016-11-20T07:03:02.152Z,7.51
2016-11-20T07:04:16.439Z,7.58
2016-11-20T07:05:31.852Z,7.64
2016-11-20T07:06:46.348Z,7.71
2016-11-20T07:08:01.226Z,7.78
2016-11-20T07:09:15.924Z,7.84
2016-11-20T07:10:33.563Z,7.92
2016-11-20T07:11:48.365Z,7.99
2016-11-20T07:13:03.812Z,8.05
2016-11-20T07:14:18.408Z,8.13
2016-11-20T07:15:33.047Z,8.16
2016-11-20T07:16:47.810Z,8.2
2016-11-20T07:18:02.735Z,8.26
2016-11-20T07:19:18.219Z,8.32
2016-11-20T07:20:32.836Z,8.36
2016-11-20T07:21:48.387Z,8.39
2016-11-20T07:23:03.415Z,8.43
2016-11-20T07:24:18.524Z,8.46
2016-11-20T07:25:33.210Z,8.51
2016-11-20T07:26:48.087Z,8.54
2016-11-20T07:28:02.760Z,8.58
2016-11-20T07:29:17.629Z,8.62
2016-11-20T07:30:32.528Z,8.66
2016-11-20T07:31:50.854Z,8.69
2016-11-20T07:33:05.889Z,8.71
2016-11-20T07:34:20.595Z,8.7
2016-11-20T07:35:35.436Z,8.74
2016-11-20T07:36:53.886Z,8.78
2016-11-20T07:38:23.392Z,8.82
2016-11-20T07:39:38.118Z,8.84
2016-11-20T07:40:52.354Z,8.89
2016-11-20T07:42:09.344Z,8.95
2016-11-20T07:43:23.971Z,9
2016-11-20T07:44:38.289Z,9.1
2016-11-20T07:45:52.966Z,9.17
2016-11-20T07:47:07.292Z,9.2
2016-11-20T07:48:22.217Z,9.21
2016-11-20T07:49:36.564Z,9.22
2016-11-20T07:50:51.195Z,9.21
2016-11-20T07:52:05.779Z,9.2
2016-11-20T07:53:20.075Z,9.21
2016-11-20T07:54:35.325Z,9.23
2016-11-20T07:55:51.395Z,9.21
2016-11-20T07:57:08.899Z,9.17
2016-11-20T07:58:33.290Z,9.14
2016-11-20T07:59:55.646Z,9.19
2016-11-20T08:01:18.083Z,9.22
2016-11-20T08:02:34.351Z,9.27
2016-11-20T08:04:05.058Z,9.31
2016-11-20T08:05:24.975Z,9.37
2016-11-20T08:06:39.595Z,9.44
2016-11-20T08:07:54.692Z,9.5
2016-11-20T08:09:09.245Z,9.58
2016-11-20T08:11:53.945Z,9.78
2016-11-20T08:13:08.435Z,9.88
2016-11-20T08:14:23.051Z,9.98
2016-11-20T08:15:37.796Z,10.08
2016-11-20T08:16:52.380Z,10.13
2016-11-20T08:18:06.904Z,10.15
2016-11-20T08:19:21.203Z,10.16
2016-11-20T08:20:35.762Z,10.19
2016-11-20T08:21:50.636Z,10.22
2016-11-20T08:23:04.884Z,10.23
2016-11-20T08:24:19.313Z,10.23
2016-11-20T08:25:33.625Z,10.25
2016-11-20T08:26:48.218Z,10.29
2016-11-20T08:28:02.909Z,10.32
2016-11-20T08:29:17.658Z,10.35
2016-11-20T08:30:32.350Z,10.38
2016-11-20T08:31:46.735Z,10.4
2016-11-20T08:33:01.074Z,10.45
2016-11-20T08:34:16.104Z,10.5
2016-11-20T08:35:30.746Z,10.54
2016-11-20T08:36:45.518Z,10.61
2016-11-20T08:38:00.047Z,10.65
2016-11-20T08:39:14.552Z,10.7
2016-11-20T08:40:29.351Z,10.72
2016-11-20T08:41:43.603Z,10.74
2016-11-20T08:42:58.530Z,10.79
2016-11-20T08:44:13.040Z,10.84
2016-11-20T08:45:27.874Z,10.9
2016-11-20T08:46:42.142Z,11
2016-11-20T08:47:56.631Z,11.1
2016-11-20T08:49:10.954Z,11.19
2016-11-20T08:50:25.538Z,11.3
2016-11-20T08:51:39.794Z,11.42
2016-11-20T08:52:55.425Z,11.5
2016-11-20T08:54:10.577Z,11.54
2016-11-20T08:55:25.030Z,11.56
2016-11-20T08:56:39.754Z,11.56
2016-11-20T08:57:54.140Z,11.58
2016-11-20T08:59:08.664Z,11.6
2016-11-20T09:00:25.381Z,11.59
2016-11-20T09:01:39.979Z,11.58
2016-11-20T09:02:54.555Z,11.59
2016-11-20T09:04:09.072Z,11.61
2016-11-20T09:05:23.700Z,11.65
2016-11-20T09:06:38.705Z,11.71
2016-11-20T09:07:53.362Z,11.75
2016-11-20T09:09:07.611Z,11.75
2016-11-20T09:10:22.164Z,11.71
2016-11-20T09:11:36.887Z,11.7
2016-11-20T09:12:51.942Z,11.66
2016-11-20T09:14:06.588Z,11.58
2016-11-20T09:15:20.889Z,11.51
2016-11-20T09:16:35.786Z,11.43
2016-11-20T09:17:50.242Z,11.41
2016-11-20T09:19:05.403Z,11.44
2016-11-20T09:20:20.479Z,11.43
2016-11-20T09:21:36.047Z,11.48
2016-11-20T09:22:50.897Z,11.5
2016-11-20T09:24:05.843Z,11.55
2016-11-20T09:25:20.334Z,11.61
2016-11-20T09:26:35.111Z,11.66
2016-11-20T09:27:50.007Z,11.71
2016-11-20T09:29:06.037Z,11.77
2016-11-20T09:30:20.410Z,11.8
2016-11-20T09:31:34.892Z,11.8
2016-11-20T09:32:49.776Z,11.8
2016-11-20T09:34:04.480Z,11.8
2016-11-20T09:35:19.910Z,11.82
2016-11-20T09:36:34.259Z,11.83
2016-11-20T09:37:48.833Z,11.84
2016-11-20T09:39:03.234Z,11.88
2016-11-20T09:40:17.720Z,11.92
2016-11-20T09:41:32.047Z,11.96
2016-11-20T09:42:47.625Z,12.01
2016-11-20T09:44:04.938Z,12.07
2016-11-20T09:45:23.703Z,12.17
2016-11-20T09:46:39.587Z,12.26
2016-11-20T09:47:56.161Z,12.31
2016-11-20T09:49:12.439Z,12.31
2016-11-20T09:50:27.905Z,12.29
2016-11-20T09:52:03.562Z,12.25
2016-11-20T09:53:25.886Z,12.21
2016-11-20T09:54:45.902Z,12.22
2016-11-20T09:56:02.044Z,12.24
2016-11-20T09:57:17.886Z,12.26
2016-11-20T09:58:32.707Z,12.32
2016-11-20T09:59:47.210Z,12.37
2016-11-20T10:01:01.775Z,12.37
2016-11-20T10:02:17.097Z,12.31
2016-11-20T10:03:31.915Z,12.24
2016-11-20T10:04:46.574Z,12.13
2016-11-20T10:06:01.883Z,12.05
2016-11-20T10:07:16.214Z,11.98
2016-11-20T10:08:30.854Z,11.96
2016-11-20T10:09:45.191Z,11.95
2016-11-20T10:11:00.565Z,11.97
2016-11-20T10:12:16.232Z,12.01
2016-11-20T10:13:31.650Z,12.05
2016-11-20T10:14:46.591Z,12.11
2016-11-20T10:16:16.149Z,12.16
2016-11-20T10:17:30.740Z,12.2
2016-11-20T10:18:48.207Z,12.27
2016-11-20T10:20:03.042Z,12.36
2016-11-20T10:21:17.459Z,12.41
2016-11-20T10:22:32.201Z,12.46
2016-11-20T10:23:46.341Z,12.48
2016-11-20T10:25:01.099Z,12.49
2016-11-20T10:26:16.128Z,12.42
2016-11-20T10:27:30.329Z,12.4
2016-11-20T10:28:44.924Z,12.4
2016-11-20T10:30:00.036Z,12.42
2016-11-20T10:31:14.500Z,12.38
2016-11-20T10:32:44.100Z,12.39
2016-11-20T10:33:58.768Z,12.43
2016-11-20T10:35:13.847Z,12.47
2016-11-20T10:36:28.474Z,12.5
2016-11-20T10:37:43.103Z,12.51
2016-11-20T10:38:58.015Z,12.53
2016-11-20T10:40:12.548Z,12.56
2016-11-20T10:41:27.599Z,12.6
2016-11-20T10:42:42.379Z,12.64
2016-11-20T10:43:56.691Z,12.69
2016-11-20T10:45:11.688Z,12.76
2016-11-20T10:46:26.198Z,12.79
2016-11-20T10:47:41.442Z,12.84
2016-11-20T10:48:55.937Z,12.9
2016-11-20T10:50:11.449Z,12.98
2016-11-20T10:51:28.499Z,13.1
2016-11-20T10:52:43.456Z,13.23
2016-11-20T10:53:58.298Z,13.37
2016-11-20T10:55:12.746Z,13.48
2016-11-20T10:56:28.731Z,13.63
2016-11-20T10:57:43.767Z,13.73
2016-11-20T10:58:58.564Z,13.83
2016-11-20T11:00:13.114Z,13.9
2016-11-20T11:01:27.929Z,13.96
2016-11-20T11:02:43.861Z,14.02
2016-11-20T11:03:59.290Z,14.09
2016-11-20T11:05:14.297Z,14.18
2016-11-20T11:06:28.951Z,14.26
2016-11-20T11:07:43.285Z,14.35
2016-11-20T11:08:57.621Z,14.43
2016-11-20T11:10:12.224Z,14.49
2016-11-20T11:11:26.498Z,14.52
2016-11-20T11:12:40.934Z,14.52
2016-11-20T11:13:55.906Z,14.49
2016-11-20T11:15:10.327Z,14.51
2016-11-20T11:16:40.154Z,14.54
2016-11-20T11:17:54.978Z,14.59
2016-11-20T11:19:09.827Z,14.61
2016-11-20T11:20:24.112Z,14.65
2016-11-20T11:21:38.961Z,14.69
2016-11-20T11:22:53.398Z,14.68
2016-11-20T11:24:07.841Z,14.66
2016-11-20T11:25:22.755Z,14.64
2016-11-20T11:26:37.213Z,14.65
2016-11-20T11:28:06.600Z,14.62
2016-11-20T11:29:20.923Z,14.65
2016-11-20T11:30:35.698Z,14.66
2016-11-20T11:31:49.927Z,14.7
2016-11-20T11:33:04.749Z,14.75
2016-11-20T11:34:19.444Z,14.78
2016-11-20T11:35:34.033Z,14.81
2016-11-20T11:36:50.830Z,14.83
2016-11-20T11:38:06.077Z,14.87
2016-11-20T11:39:20.659Z,14.92
2016-11-20T11:40:35.813Z,14.99
2016-11-20T11:41:50.176Z,15.07
2016-11-20T11:43:04.798Z,15.13
2016-11-20T11:44:19.045Z,15.22
2016-11-20T11:45:33.917Z,15.29
2016-11-20T11:46:48.677Z,15.42
2016-11-20T11:48:03.219Z,15.51
2016-11-20T11:49:18.011Z,15.56
2016-11-20T11:50:32.389Z,15.59
2016-11-20T11:51:47.151Z,15.61
2016-11-20T11:53:02.109Z,15.66
2016-11-20T11:54:16.652Z,15.71
2016-11-20T11:55:31.507Z,15.72
2016-11-20T11:56:46.035Z,15.71
2016-11-20T11:58:00.426Z,15.75
2016-11-20T11:59:15.656Z,15.74
2016-11-20T12:00:29.876Z,15.71
2016-11-20T12:01:44.870Z,15.66
2016-11-20T12:02:59.583Z,15.65
2016-11-20T12:04:17.035Z,15.65
2016-11-20T12:05:32.250Z,15.64
2016-11-20T12:06:47.410Z,15.65
2016-11-20T12:08:02.811Z,15.62
2016-11-20T12:09:17.236Z,15.59
2016-11-20T12:10:31.766Z,15.58
2016-11-20T12:11:47.273Z,15.59
2016-11-20T12:13:02.337Z,15.58
2016-11-20T12:14:16.982Z,15.62
2016-11-20T12:15:32.030Z,15.62
2016-11-20T12:16:47.921Z,15.61
2016-11-20T12:18:03.101Z,15.59
2016-11-20T12:19:18.325Z,15.61
2016-11-20T12:20:33.848Z,15.66
2016-11-20T12:22:03.149Z,15.7
2016-11-20T12:23:19.216Z,15.74
2016-11-20T12:24:33.938Z,15.78
2016-11-20T12:25:49.805Z,15.78
2016-11-20T12:27:04.842Z,15.79
2016-11-20T12:28:19.661Z,15.82
2016-11-20T12:29:35.533Z,15.83
2016-11-20T12:30:51.628Z,15.87
2016-11-20T12:33:36.331Z,16
2016-11-20T12:34:51.258Z,16.04
2016-11-20T12:36:06.605Z,16.08
2016-11-20T12:37:21.672Z,16.13
2016-11-20T12:38:36.809Z,16.17
2016-11-20T12:39:52.207Z,16.2
2016-11-20T12:41:07.575Z,16.2
2016-11-20T12:42:22.506Z,16.27
2016-11-20T12:43:37.340Z,16.32
2016-11-20T12:44:52.620Z,16.36
2016-11-20T12:46:07.745Z,16.41
2016-11-20T12:47:22.408Z,16.46
2016-11-20T12:48:37.299Z,16.53
2016-11-20T12:49:52.045Z,16.56
2016-11-20T12:51:06.385Z,16.61
2016-11-20T12:52:21.811Z,16.64
2016-11-20T12:53:36.877Z,16.7
2016-11-20T12:54:54.444Z,16.65
2016-11-20T12:56:09.174Z,16.66
2016-11-20T12:57:24.179Z,16.7
2016-11-20T12:58:38.807Z,16.69
2016-11-20T13:00:07.990Z,16.68
2016-11-20T13:01:23.430Z,16.68
2016-11-20T13:02:38.325Z,16.65
2016-11-20T13:03:52.923Z,16.68
2016-11-20T13:05:07.196Z,16.65
2016-11-20T13:06:21.789Z,16.64
2016-11-20T13:07:36.339Z,16.62
2016-11-20T13:08:50.649Z,16.6
2016-11-20T13:10:06.190Z,16.6
2016-11-20T13:11:21.144Z,16.64
2016-11-20T13:12:36.337Z,16.69
2016-11-20T13:13:51.588Z,16.7
2016-11-20T13:15:07.050Z,16.69
2016-11-20T13:16:22.004Z,16.69
2016-11-20T13:17:36.857Z,16.73
2016-11-20T13:18:51.813Z,16.76
2016-11-20T13:20:06.569Z,16.81
2016-11-20T13:21:21.100Z,16.82
2016-11-20T13:22:35.364Z,16.86
2016-11-20T13:23:49.632Z,16.91
2016-11-20T13:25:04.110Z,16.91
2016-11-20T13:26:18.346Z,16.92
2016-11-20T13:27:32.942Z,16.92
2016-11-20T13:28:47.430Z,16.91
2016-11-20T13:30:02.103Z,16.91
2016-11-20T13:31:16.539Z,16.89
2016-11-20T13:32:30.776Z,16.87
2016-11-20T13:33:45.667Z,16.87
2016-11-20T13:35:01.434Z,16.87
2016-11-20T13:36:15.594Z,16.88
2016-11-20T13:37:30.488Z,16.88
2016-11-20T13:38:45.084Z,16.87
2016-11-20T13:39:59.744Z,16.85
2016-11-20T13:41:14.187Z,16.84
2016-11-20T13:42:29.104Z,16.81
2016-11-20T13:43:43.875Z,16.81
2016-11-20T13:44:58.114Z,16.79
2016-11-20T13:46:12.456Z,16.79
2016-11-20T13:47:26.915Z,16.83
2016-11-20T13:48:41.793Z,16.89
2016-11-20T13:49:57.035Z,16.92
2016-11-20T13:51:11.306Z,16.97
2016-11-20T13:52:25.808Z,17.03
2016-11-20T13:53:40.449Z,17.09
2016-11-20T13:54:55.443Z,17.12
2016-11-20T13:56:13.354Z,17.08
2016-11-20T13:57:45.861Z,17.06
2016-11-20T13:59:00.466Z,17.06
2016-11-20T14:00:15.042Z,17.09
2016-11-20T14:01:30.349Z,17.09
2016-11-20T14:02:59.336Z,17.08
2016-11-20T14:04:15.346Z,17.06
2016-11-20T14:05:30.671Z,17.06
2016-11-20T14:06:46.255Z,17.08
2016-11-20T14:08:00.899Z,17.11
2016-11-20T14:09:16.116Z,17.14
2016-11-20T14:10:30.581Z,17.16
2016-11-20T14:11:44.911Z,17.17
2016-11-20T14:13:03.049Z,17.14
2016-11-20T14:14:17.606Z,17.12
2016-11-20T14:15:32.347Z,17.12
2016-11-20T14:16:47.479Z,17.1
2016-11-20T14:18:02.159Z,17.09
2016-11-20T14:19:16.985Z,17.09
2016-11-20T14:20:32.248Z,17.08
2016-11-20T14:21:46.900Z,17.09
2016-11-20T14:23:16.013Z,17.11
2016-11-20T14:24:31.924Z,17.11
2016-11-20T14:27:16.276Z,17.05
2016-11-20T14:28:30.800Z,17.08
2016-11-20T14:29:45.299Z,17.1
2016-11-20T14:31:00.521Z,17.12
2016-11-20T14:32:14.958Z,17.1
2016-11-20T14:33:30.147Z,17.07
2016-11-20T14:34:44.950Z,17.08
2016-11-20T14:35:59.625Z,17.07
2016-11-20T14:37:14.397Z,17.07
2016-11-20T14:38:29.759Z,17.06
2016-11-20T14:39:44.326Z,17.04
2016-11-20T14:40:58.736Z,17.04
2016-11-20T14:42:13.332Z,17.01
2016-11-20T14:43:28.353Z,17.02
2016-11-20T14:44:42.505Z,17
2016-11-20T14:45:57.718Z,16.97
2016-11-20T14:47:12.186Z,16.92
2016-11-20T14:48:26.999Z,16.92
2016-11-20T14:49:41.164Z,16.92
2016-11-20T14:50:55.748Z,16.93
2016-11-20T14:52:09.952Z,16.99
2016-11-20T14:53:24.717Z,16.99
2016-11-20T14:54:39.423Z,16.98
2016-11-20T14:55:54.253Z,16.97
2016-11-20T14:57:08.843Z,16.99
2016-11-20T14:58:23.935Z,17.01
2016-11-20T14:59:38.485Z,17.03
2016-11-20T15:00:53.392Z,17.04
2016-11-20T15:02:08.047Z,17.04
2016-11-20T15:03:23.002Z,17.01
2016-11-20T15:04:38.177Z,17
2016-11-20T15:05:53.903Z,17.01
2016-11-20T15:07:08.209Z,17.06
2016-11-20T15:08:23.946Z,17.05
2016-11-20T15:09:38.333Z,17.07
2016-11-20T15:10:53.116Z,17.07
2016-11-20T15:12:08.628Z,17.08
2016-11-20T15:13:23.451Z,17.03
2016-11-20T15:14:38.280Z,17.01
2016-11-20T15:15:52.893Z,17
2016-11-20T15:17:07.416Z,16.99
2016-11-20T15:18:22.266Z,17.01
2016-11-20T15:19:37.012Z,17.01
2016-11-20T15:20:51.499Z,17
2016-11-20T15:22:06.589Z,17.01
2016-11-20T15:23:22.380Z,17.04
2016-11-20T15:24:37.461Z,17.05
2016-11-20T15:26:06.861Z,17.08
2016-11-20T15:27:21.244Z,17.1
2016-11-20T15:28:36.202Z,17.08
2016-11-20T15:29:51.548Z,17.07
2016-11-20T15:31:08.621Z,17.1
2016-11-20T15:32:23.216Z,17.08
2016-11-20T15:33:38.908Z,17.1
2016-11-20T15:34:53.600Z,17.12
2016-11-20T15:36:08.033Z,17.11
2016-11-20T15:37:22.291Z,17.13
2016-11-20T15:38:36.727Z,17.1
2016-11-20T15:39:53.097Z,17.08
2016-11-20T15:41:07.717Z,17.09
2016-11-20T15:42:22.712Z,17.07
2016-11-20T15:43:37.307Z,17.08
2016-11-20T15:44:52.266Z,17.08
2016-11-20T15:46:06.673Z,17.07
2016-11-20T15:47:21.197Z,17.07
2016-11-20T15:48:35.391Z,17.07
2016-11-20T15:49:50.296Z,17.07
2016-11-20T15:51:19.190Z,17.07
2016-11-20T15:52:34.027Z,17.08
2016-11-20T15:53:48.942Z,17.04
2016-11-20T15:55:03.178Z,17.04
2016-11-20T15:56:17.461Z,17.02
2016-11-20T15:57:31.987Z,17
2016-11-20T15:58:46.269Z,16.98
2016-11-20T16:00:15.991Z,16.96
2016-11-20T16:01:30.583Z,16.94
2016-11-20T16:02:45.054Z,16.92
2016-11-20T16:03:59.297Z,16.9
2016-11-20T16:05:14.048Z,16.9
2016-11-20T16:06:28.909Z,16.88
2016-11-20T16:07:43.570Z,16.89
2016-11-20T16:08:58.206Z,16.9
2016-11-20T16:10:13.508Z,16.9
2016-11-20T16:11:28.037Z,16.92
2016-11-20T16:12:43.036Z,16.95
2016-11-20T16:13:57.803Z,16.97
2016-11-20T16:15:26.981Z,17
2016-11-20T16:16:41.859Z,17.03
2016-11-20T16:17:57.129Z,17.04
2016-11-20T16:19:11.801Z,17.05
2016-11-20T16:20:25.893Z,17.08
2016-11-20T16:21:40.470Z,17.09
2016-11-20T16:22:54.766Z,17.1
2016-11-20T16:24:24.399Z,17.1
2016-11-20T16:25:39.601Z,17.07
2016-11-20T16:26:53.839Z,17.07
2016-11-20T16:28:08.504Z,17.05
2016-11-20T16:29:22.980Z,17.05
2016-11-20T16:30:38.149Z,17.05
2016-11-20T16:31:53.713Z,17.05
2016-11-20T16:33:08.119Z,17.02
2016-11-20T16:34:23.046Z,17
2016-11-20T16:35:38.487Z,16.95
2016-11-20T16:36:53.399Z,16.95
2016-11-20T16:38:07.914Z,16.93
2016-11-20T16:42:20.046Z,17.02
2016-11-20T16:45:33.746Z,17.08
2016-11-20T16:47:03.321Z,17.08
2016-11-20T16:48:17.996Z,17.09
2016-11-20T16:49:32.892Z,17.1
2016-11-20T16:50:47.414Z,17.1
2016-11-20T16:52:04.250Z,17.1
2016-11-20T16:53:18.674Z,17.07
2016-11-20T16:54:33.103Z,17.08
2016-11-20T16:55:47.539Z,17.09
2016-11-20T16:57:02.167Z,17.11
2016-11-20T16:58:16.306Z,17.09
2016-11-20T16:59:30.553Z,17.1